AUA14D LOWW-LSZH
Flight info
| Callsign | AUA14D |
|---|---|
| Flight time | N/A |
| Altitude | 30000 |
| Route | SOVIL DCT SITNI DCT BAGSI DCT MATIG DCT TRAUN L856 NEGRA |
| Aircraft | A320/M-SDE3FGHIRWY/LB1 |
Departure
| Time | 2026-04-24 16:55 |
|---|---|
| Airport | Vienna International Airport (LOWW) |
Arrival
| Time | N/A |
|---|---|
| Airport | Zürich Airport (LSZH) |
| Time | Latitude | Longitude | Altitude | Speed | Heading |
|---|---|---|---|---|---|
| 2026-04-24 16:06 | 48.11745 | 16.56682 | 618 ft | 0 kts | 25° |
| 2026-04-24 16:45 | 48.11743 | 16.56681 | 608 ft | 3 kts | 25° |
| 2026-04-24 16:46 | 48.11719 | 16.56663 | 623 ft | 4 kts | 28° |
| 2026-04-24 16:46 | 48.11696 | 16.56642 | 619 ft | 4 kts | 40° |
| 2026-04-24 16:46 | 48.11681 | 16.56615 | 620 ft | 4 kts | 90° |
| 2026-04-24 16:46 | 48.11682 | 16.56603 | 618 ft | 0 kts | 116° |
| 2026-04-24 16:50 | 48.11681 | 16.56604 | 618 ft | 1 kts | 116° |
| 2026-04-24 16:50 | 48.11664 | 16.56655 | 614 ft | 7 kts | 116° |
| 2026-04-24 16:50 | 48.11645 | 16.56714 | 617 ft | 6 kts | 116° |
| 2026-04-24 16:51 | 48.11624 | 16.56777 | 621 ft | 9 kts | 116° |
| 2026-04-24 16:51 | 48.11594 | 16.56867 | 614 ft | 9 kts | 116° |
| 2026-04-24 16:51 | 48.11538 | 16.56920 | 613 ft | 14 kts | 183° |
| 2026-04-24 16:51 | 48.11452 | 16.56861 | 616 ft | 14 kts | 206° |
| 2026-04-24 16:52 | 48.11373 | 16.56815 | 613 ft | 8 kts | 167° |
| 2026-04-24 16:52 | 48.11338 | 16.56878 | 610 ft | 9 kts | 116° |
| 2026-04-24 16:52 | 48.11305 | 16.56976 | 615 ft | 12 kts | 116° |
| 2026-04-24 16:52 | 48.11265 | 16.57101 | 616 ft | 15 kts | 116° |
| 2026-04-24 16:53 | 48.11217 | 16.57248 | 610 ft | 17 kts | 116° |
| 2026-04-24 16:53 | 48.11166 | 16.57406 | 621 ft | 16 kts | 116° |
| 2026-04-24 16:53 | 48.11115 | 16.57530 | 610 ft | 12 kts | 150° |
| 2026-04-24 16:53 | 48.11044 | 16.57503 | 608 ft | 11 kts | 207° |
| 2026-04-24 16:54 | 48.10978 | 16.57453 | 612 ft | 11 kts | 207° |
| 2026-04-24 16:54 | 48.10961 | 16.57391 | 612 ft | 7 kts | 298° |
| 2026-04-24 16:54 | 48.11001 | 16.57272 | 615 ft | 31 kts | 295° |
| 2026-04-24 16:54 | 48.11197 | 16.56663 | 610 ft | 97 kts | 296° |
| 2026-04-24 16:55 | 48.11577 | 16.55496 | 615 ft | 150 kts | 296° |
| 2026-04-24 16:55 | 48.12047 | 16.54065 | 1144 ft | 152 kts | 292° |
| 2026-04-24 16:55 | 48.12125 | 16.52491 | 1738 ft | 160 kts | 255° |
| 2026-04-24 16:55 | 48.11586 | 16.50986 | 2363 ft | 168 kts | 245° |
| 2026-04-24 16:56 | 48.10988 | 16.49332 | 2652 ft | 192 kts | 246° |
| 2026-04-24 16:56 | 48.10341 | 16.47450 | 2963 ft | 217 kts | 247° |
| 2026-04-24 16:56 | 48.09595 | 16.45341 | 3379 ft | 242 kts | 241° |
| 2026-04-24 16:56 | 48.08583 | 16.43202 | 4032 ft | 258 kts | 238° |
| 2026-04-24 16:57 | 48.07501 | 16.41020 | 4883 ft | 264 kts | 237° |
| 2026-04-24 16:57 | 48.06393 | 16.38801 | 5801 ft | 268 kts | 237° |
| 2026-04-24 16:57 | 48.05265 | 16.36566 | 6684 ft | 273 kts | 237° |
| 2026-04-24 16:57 | 48.04163 | 16.34267 | 7467 ft | 276 kts | 244° |
| 2026-04-24 16:58 | 48.03470 | 16.31626 | 8301 ft | 273 kts | 262° |
| 2026-04-24 16:58 | 48.03307 | 16.28816 | 9141 ft | 272 kts | 275° |
| 2026-04-24 16:58 | 48.03361 | 16.25984 | 10046 ft | 273 kts | 275° |
| 2026-04-24 16:58 | 48.03414 | 16.23097 | 10528 ft | 288 kts | 275° |
| 2026-04-24 16:59 | 48.03481 | 16.19981 | 10764 ft | 312 kts | 275° |
| 2026-04-24 16:59 | 48.03553 | 16.16619 | 11005 ft | 333 kts | 275° |
| 2026-04-24 16:59 | 48.03687 | 16.09516 | 12213 ft | 348 kts | 274° |
| 2026-04-24 17:00 | 48.03745 | 16.05867 | 12889 ft | 354 kts | 274° |
| 2026-04-24 17:00 | 48.03860 | 15.98422 | 14188 ft | 364 kts | 274° |
| 2026-04-24 17:00 | 48.03917 | 15.94617 | 14797 ft | 367 kts | 274° |
| 2026-04-24 17:01 | 48.04028 | 15.86958 | 16008 ft | 375 kts | 275° |
| 2026-04-24 17:01 | 48.04085 | 15.83046 | 16617 ft | 378 kts | 274° |
| 2026-04-24 17:02 | 48.04196 | 15.75107 | 17830 ft | 385 kts | 275° |
| 2026-04-24 17:02 | 48.04251 | 15.71092 | 18428 ft | 388 kts | 275° |
| 2026-04-24 17:02 | 48.04303 | 15.67042 | 18973 ft | 392 kts | 274° |
| 2026-04-24 17:02 | 48.04352 | 15.62957 | 19538 ft | 394 kts | 274° |
| 2026-04-24 17:03 | 48.04450 | 15.54716 | 20652 ft | 399 kts | 273° |
| 2026-04-24 17:03 | 48.04496 | 15.50613 | 21228 ft | 400 kts | 274° |
| 2026-04-24 17:03 | 48.04543 | 15.46445 | 21718 ft | 404 kts | 273° |
| 2026-04-24 17:04 | 48.04590 | 15.42226 | 22145 ft | 408 kts | 273° |
| 2026-04-24 17:04 | 48.04689 | 15.33674 | 23107 ft | 413 kts | 275° |
| 2026-04-24 17:04 | 48.04756 | 15.29370 | 23647 ft | 413 kts | 274° |
| 2026-04-24 17:05 | 48.04830 | 15.25076 | 24011 ft | 416 kts | 274° |
| 2026-04-24 17:05 | 48.04906 | 15.20739 | 24352 ft | 419 kts | 273° |
| 2026-04-24 17:05 | 48.05054 | 15.11954 | 25018 ft | 425 kts | 275° |
| 2026-04-24 17:06 | 48.05119 | 15.07517 | 25375 ft | 428 kts | 275° |
| 2026-04-24 17:06 | 48.05241 | 14.98541 | 25899 ft | 437 kts | 273° |
| 2026-04-24 17:06 | 48.05297 | 14.94042 | 26208 ft | 440 kts | 273° |
| 2026-04-24 17:07 | 48.05334 | 14.90946 | 26427 ft | 441 kts | 273° |
| 2026-04-24 17:07 | 48.05404 | 14.84852 | 26861 ft | 444 kts | 273° |
| 2026-04-24 17:07 | 48.05499 | 14.75565 | 27489 ft | 449 kts | 273° |
| 2026-04-24 17:08 | 48.05572 | 14.66183 | 28067 ft | 453 kts | 273° |
| 2026-04-24 17:08 | 48.05604 | 14.61466 | 28354 ft | 455 kts | 273° |
| 2026-04-24 17:08 | 48.05636 | 14.56768 | 28605 ft | 458 kts | 273° |
| 2026-04-24 17:09 | 48.05691 | 14.47216 | 29121 ft | 461 kts | 273° |
| 2026-04-24 17:09 | 48.05739 | 14.37583 | 29637 ft | 464 kts | 273° |
| 2026-04-24 17:10 | 48.05760 | 14.32774 | 30008 ft | 463 kts | 273° |
| 2026-04-24 17:10 | 48.05825 | 14.18469 | 30084 ft | 456 kts | 273° |
| 2026-04-24 17:12 | 48.04393 | 13.80753 | 30093 ft | 456 kts | 267° |